| time (UTC) | temp C | wind direction | speed KPH | gust KPH | rain 1hr cm | rain 24hr cm | rain mn cm | humidity % | barometer mb |
| 20260509043033 | 27 | 184 | 4.8 | 14.5 | 0.00 | 0.00 | 0.00 | 28 | 1022.1 |
| 20260509041528 | 26 | 321 | 9.7 | 17.7 | 0.00 | 0.00 | 0.00 | 29 | 1022.5 |
| 20260509040032 | 26 | 345 | 9.7 | 20.9 | 0.00 | 0.00 | 0.00 | 30 | 1022.7 |
| 20260509034530 | 25 | 323 | 11.3 | 24.1 | 0.00 | 0.00 | 0.00 | 30 | 1023.0 |
| 20260509033028 | 25 | 201 | 8.0 | 19.3 | 0.00 | 0.00 | 0.00 | 31 | 1023.3 |
| 20260509031534 | 24 | 311 | 11.3 | 22.5 | 0.00 | 0.00 | 0.00 | 32 | 1023.7 |
| 20260509030029 | 23 | 316 | 11.3 | 20.9 | 0.00 | 0.00 | 0.00 | 33 | 1023.9 |
| 20260509024530 | 23 | 312 | 11.3 | 22.5 | 0.00 | 0.00 | 0.00 | 34 | 1024.1 |
| 20260509023028 | 22 | 306 | 8.0 | 19.3 | 0.00 | 0.00 | 0.00 | 35 | 1024.3 |
| 20260509021528 | 22 | 340 | 11.3 | 22.5 | 0.00 | 0.00 | 0.00 | 36 | 1024.4 |
| 20260509020046 | 21 | 300 | 11.3 | 25.7 | 0.00 | 0.00 | 0.00 | 37 | 1024.7 |
| 20260509014542 | 21 | 307 | 12.9 | 29.0 | 0.00 | 0.00 | 0.00 | 38 | 1024.7 |
| 20260509013036 | 20 | 321 | 14.5 | 22.5 | 0.00 | 0.00 | 0.00 | 39 | 1024.8 |
| 20260509011530 | 20 | 289 | 8.0 | 19.3 | 0.00 | 0.00 | 0.00 | 41 | 1025.0 |
| 20260509010027 | 19 | 347 | 9.7 | 24.1 | 0.00 | 0.00 | 0.00 | 42 | 1025.1 |
| 20260509004528 | 18 | 333 | 12.9 | 29.0 | 0.00 | 0.00 | 0.00 | 44 | 1025.1 |
| 20260509003039 | 17 | 324 | 11.3 | 20.9 | 0.00 | 0.00 | 0.00 | 47 | 1025.2 |
| 20260509001528 | 16 | 355 | 11.3 | 25.7 | 0.00 | 0.00 | 0.00 | 48 | 1025.2 |
| 20260509000030 | 16 | 340 | 11.3 | 20.9 | 0.00 | 0.00 | 0.00 | 51 | 1025.0 |
| 20260508234549 | 15 | 336 | 8.0 | 16.1 | 0.00 | 0.00 | 0.00 | 52 | 1025.1 |
| 20260508233031 | 14 | 335 | 8.0 | 16.1 | 0.00 | 0.00 | 0.00 | 53 | 1025.0 |
| 20260508231530 | 14 | 342 | 8.0 | 14.5 | 0.00 | 0.00 | 0.00 | 54 | 1024.7 |
| 20260508230409 | 14 | 327 | 6.4 | 19.3 | 0.00 | 0.00 | 0.00 | 53 | 1024.6 |
| 20260508224558 | 14 | 327 | 8.0 | 16.1 | 0.00 | 0.00 | 0.00 | 53 | 1024.5 |
| 20260508223036 | 15 | 336 | 9.7 | 16.1 | 0.00 | 0.00 | 0.00 | 53 | 1024.4 |
| 20260508221528 | 14 | 322 | 6.4 | 14.5 | 0.00 | 0.00 | 0.00 | 54 | 1024.2 |
| 20260508220027 | 14 | 46 | 6.4 | 16.1 | 0.00 | 0.00 | 0.00 | 54 | 1024.0 |
| 20260508214528 | 14 | 351 | 9.7 | 16.1 | 0.00 | 0.00 | 0.00 | 54 | 1023.8 |
| 20260508213028 | 14 | 320 | 6.4 | 12.9 | 0.00 | 0.00 | 0.00 | 54 | 1023.9 |
| 20260508211528 | 14 | 340 | 8.0 | 14.5 | 0.00 | 0.00 | 0.00 | 54 | 1023.7 |
| 20260508210030 | 14 | 51 | 6.4 | 12.9 | 0.00 | 0.00 | 0.00 | 54 | 1023.6 |
| 20260508204529 | 14 | 331 | 8.0 | 14.5 | 0.00 | 0.00 | 0.00 | 54 | 1023.5 |
| 20260508203029 | 15 | 323 | 8.0 | 14.5 | 0.00 | 0.00 | 0.00 | 54 | 1023.7 |
| 20260508201530 | 15 | 331 | 8.0 | 16.1 | 0.00 | 0.00 | 0.00 | 54 | 1023.5 |
| 20260508200033 | 15 | 350 | 8.0 | 16.1 | 0.00 | 0.00 | 0.00 | 55 | 1023.6 |
| 20260508194531 | 15 | 302 | 6.4 | 12.9 | 0.00 | 0.00 | 0.00 | 55 | 1023.6 |
| 20260508193027 | 15 | 320 | 6.4 | 12.9 | 0.00 | 0.00 | 0.00 | 55 | 1023.5 |
| 20260508191535 | 15 | 318 | 6.4 | 12.9 | 0.00 | 0.00 | 0.00 | 54 | 1023.5 |
| 20260508190034 | 15 | 306 | 6.4 | 12.9 | 0.00 | 0.00 | 0.00 | 54 | 1023.5 |
| 20260508184530 | 15 | 332 | 4.8 | 8.0 | 0.00 | 0.00 | 0.00 | 55 | 1023.6 |
| 20260508183034 | 15 | 250 | 4.8 | 9.7 | 0.00 | 0.00 | 0.00 | 54 | 1023.7 |
| 20260508181535 | 16 | 263 | 4.8 | 8.0 | 0.00 | 0.00 | 0.00 | 53 | 1023.7 |
| 20260508180028 | 16 | 319 | 4.8 | 14.5 | 0.00 | 0.00 | 0.00 | 53 | 1023.7 |
| 20260508174533 | 16 | 329 | 4.8 | 14.5 | 0.00 | 0.00 | 0.00 | 53 | 1023.7 |
| 20260508173040 | 16 | 321 | 4.8 | 12.9 | 0.00 | 0.00 | 0.00 | 53 | 1023.6 |
| 20260508171530 | 16 | 216 | 4.8 | 14.5 | 0.00 | 0.00 | 0.00 | 52 | 1023.8 |
| 20260508170030 | 16 | 246 | 4.8 | 9.7 | 0.00 | 0.00 | 0.00 | 52 | 1023.8 |
| 20260508164528 | 16 | 252 | 4.8 | 14.5 | 0.00 | 0.00 | 0.00 | 52 | 1023.9 |
| 20260508163029 | 16 | 311 | 6.4 | 12.9 | 0.00 | 0.00 | 0.00 | 52 | 1023.7 |
| 20260508161529 | 16 | 171 | 4.8 | 9.7 | 0.00 | 0.00 | 0.00 | 53 | 1023.8 |
| 20260508160033 | 16 | 315 | 4.8 | 8.0 | 0.00 | 0.00 | 0.00 | 53 | 1023.9 |
| 20260508154528 | 16 | 238 | 4.8 | 9.7 | 0.00 | 0.00 | 0.00 | 53 | 1023.8 |
| 20260508153028 | 15 | 308 | 3.2 | 6.4 | 0.00 | 0.00 | 0.00 | 52 | 1023.8 |
| 20260508151531 | 15 | 194 | 3.2 | 4.8 | 0.00 | 0.00 | 0.00 | 52 | 1023.9 |
| 20260508150034 | 15 | 194 | 1.6 | 6.4 | 0.00 | 0.00 | 0.00 | 51 | 1024.0 |
| 20260508144531 | 16 | 176 | 1.6 | 9.7 | 0.00 | 0.00 | 0.00 | 50 | 1024.0 |
| 20260508143030 | 16 | 288 | 4.8 | 12.9 | 0.00 | 0.00 | 0.00 | 50 | 1024.1 |
| 20260508141554 | 16 | 184 | 3.2 | 6.4 | 0.00 | 0.00 | 0.00 | 49 | 1024.4 |
| 20260508140029 | 16 | 181 | 1.6 | 3.2 | 0.00 | 0.00 | 0.00 | 49 | 1024.2 |
| 20260508134548 | 16 | 0 | 0.0 | 3.2 | 0.00 | 0.00 | 0.00 | 49 | 1024.2 |
| 20260508133030 | 16 | 181 | 0.0 | 1.6 | 0.00 | 0.00 | 0.00 | 49 | 1024.0 |
| 20260508131535 | 16 | 181 | 0.0 | 1.6 | 0.00 | 0.00 | 0.00 | 47 | 1023.9 |
| 20260508130033 | 17 | 182 | 1.6 | 3.2 | 0.00 | 0.00 | 0.00 | 46 | 1023.7 |
| 20260508124531 | 17 | 0 | 0.0 | 1.6 | 0.00 | 0.00 | 0.00 | 46 | 1023.7 |
| 20260508123302 | 17 | 181 | 1.6 | 3.2 | 0.00 | 0.00 | 0.00 | 45 | 1023.7 |
| 20260508120300 | 18 | 181 | 0.0 | 3.2 | 0.00 | 0.00 | 0.00 | 44 | 1023.4 |
| 20260508113154 | 19 | 181 | 0.0 | 3.2 | 0.00 | 0.00 | 0.00 | 41 | 1023.2 |
| 20260508111936 | 20 | 0 | 1.6 | 3.2 | 0.00 | 0.00 | 0.00 | 40 | 1022.9 |
| 20260508110427 | 20 | 181 | 0.0 | 3.2 | 0.00 | 0.00 | 0.00 | 39 | 1023.0 |
| 20260508104950 | 21 | 181 | 0.0 | 3.2 | 0.00 | 0.00 | 0.00 | 38 | 1023.1 |
| 20260508094528 | 23 | 332 | 6.4 | 9.7 | 0.00 | 0.00 | 0.00 | 34 | 1022.4 |
| 20260508093329 | 23 | 331 | 6.4 | 16.1 | 0.00 | 0.00 | 0.00 | 33 | 1022.3 |
| 20260508091536 | 24 | 329 | 8.0 | 14.5 | 0.00 | 0.00 | 0.00 | 32 | 1022.2 |
| 20260508090039 | 25 | 322 | 8.0 | 17.7 | 0.00 | 0.00 | 0.00 | 32 | 1022.1 |
| 20260508084611 | 25 | 328 | 8.0 | 16.1 | 0.00 | 0.00 | 0.00 | 32 | 1022.2 |
| 20260508084539 | 25 | 328 | 8.0 | 16.1 | 0.00 | 0.00 | 0.00 | 32 | 1022.2 |
| 20260508083340 | 25 | 169 | 6.4 | 17.7 | 0.00 | 0.00 | 0.00 | 31 | 1022.1 |
| 20260508081531 | 25 | 334 | 6.4 | 17.7 | 0.00 | 0.00 | 0.00 | 31 | 1022.2 |
| 20260508080255 | 25 | 67 | 4.8 | 17.7 | 0.00 | 0.00 | 0.00 | 31 | 1022.0 |
| 20260508074531 | 26 | 63 | 8.0 | 19.3 | 0.00 | 0.00 | 0.00 | 31 | 1021.9 |
| 20260508073028 | 26 | 329 | 4.8 | 19.3 | 0.00 | 0.00 | 0.00 | 30 | 1022.0 |
| 20260508071531 | 26 | 352 | 8.0 | 17.7 | 0.00 | 0.00 | 0.00 | 30 | 1022.0 |
| 20260508070030 | 27 | 277 | 8.0 | 16.1 | 0.00 | 0.00 | 0.00 | 30 | 1022.1 |
| 20260508063411 | 27 | 46 | 9.7 | 17.7 | 0.00 | 0.00 | 0.00 | 28 | 1022.2 |
| 20260508060028 | 27 | 28 | 8.0 | 19.3 | 0.00 | 0.00 | 0.00 | 30 | 1022.1 |
| 20260508054804 | 27 | 226 | 3.2 | 14.5 | 0.00 | 0.00 | 0.00 | 30 | 1022.2 |
| 20260508053105 | 27 | 326 | 4.8 | 17.7 | 0.00 | 0.00 | 0.00 | 31 | 1022.4 |
| 20260508051819 | 27 | 192 | 4.8 | 14.5 | 0.00 | 0.00 | 0.00 | 32 | 1022.6 |
| 20260508050031 | 27 | 206 | 8.0 | 17.7 | 0.00 | 0.00 | 0.00 | 33 | 1022.8 |
| 20260508044849 | 26 | 286 | 9.7 | 20.9 | 0.00 | 0.00 | 0.00 | 34 | 1023.1 |
| 20260508044754 | 26 | 286 | 9.7 | 20.9 | 0.00 | 0.00 | 0.00 | 34 | 1023.1 |
| 20260508044724 | 26 | 286 | 9.7 | 20.9 | 0.00 | 0.00 | 0.00 | 34 | 1023.1 |
| 20260508044652 | 26 | 286 | 9.7 | 20.9 | 0.00 | 0.00 | 0.00 | 34 | 1023.1 |
| 20260508044535 | 26 | 286 | 9.7 | 20.9 | 0.00 | 0.00 | 0.00 | 34 | 1023.1 |